createdAt,value
2023-01-30T00:01:45.727Z,18.70
2023-01-30T00:04:14.880Z,17.33
2023-01-30T00:06:43.895Z,18.52
2023-01-30T00:09:15.161Z,23.00
2023-01-30T00:11:42.641Z,17.05
2023-01-30T00:14:09.858Z,18.27
2023-01-30T00:16:36.839Z,20.83
2023-01-30T00:19:03.932Z,18.02
2023-01-30T00:21:30.851Z,20.98
2023-01-30T00:23:58.063Z,16.98
2023-01-30T00:26:25.039Z,17.20
2023-01-30T00:28:51.935Z,19.98
2023-01-30T00:31:29.407Z,18.33
2023-01-30T00:33:56.372Z,18.08
2023-01-30T00:36:23.929Z,17.55
2023-01-30T00:38:50.862Z,18.40
2023-01-30T00:41:18.925Z,19.35
2023-01-30T00:44:04.394Z,17.25
2023-01-30T00:46:51.968Z,19.75
2023-01-30T00:49:20.479Z,17.90
2023-01-30T00:51:47.602Z,15.90
2023-01-30T00:54:14.568Z,16.70
2023-01-30T00:56:41.587Z,19.25
2023-01-30T00:59:08.499Z,19.23
2023-01-30T01:01:35.495Z,19.45
2023-01-30T01:04:02.517Z,21.65
2023-01-30T01:06:29.392Z,19.38
2023-01-30T01:08:56.745Z,17.92
2023-01-30T01:11:26.918Z,20.42
2023-01-30T01:13:59.610Z,18.65
2023-01-30T01:16:28.548Z,16.75
2023-01-30T01:18:58.911Z,18.10
2023-01-30T01:21:26.185Z,19.33
2023-01-30T01:23:55.505Z,19.27
2023-01-30T01:26:22.836Z,18.02
2023-01-30T01:28:49.883Z,19.23
2023-01-30T01:31:17.591Z,19.40
2023-01-30T01:33:44.696Z,18.27
2023-01-30T01:36:13.584Z,18.92
2023-01-30T01:38:46.841Z,15.80
2023-01-30T01:41:16.496Z,19.65
2023-01-30T01:44:10.114Z,19.33
2023-01-30T01:46:56.765Z,17.15
2023-01-30T01:49:30.681Z,21.88
2023-01-30T01:52:07.991Z,19.60
2023-01-30T01:54:49.365Z,17.23
2023-01-30T01:57:23.085Z,20.38
2023-01-30T02:00:06.672Z,21.63
2023-01-30T02:02:47.863Z,21.33
2023-01-30T02:05:17.556Z,19.63
2023-01-30T02:07:50.536Z,19.10
2023-01-30T02:10:28.179Z,17.95
2023-01-30T02:12:55.536Z,20.80
2023-01-30T02:15:22.663Z,20.10
2023-01-30T02:17:49.673Z,19.45
2023-01-30T02:20:42.560Z,18.45
2023-01-30T02:23:43.034Z,17.65
2023-01-30T02:26:34.758Z,18.87
2023-01-30T02:29:04.561Z,18.95
2023-01-30T02:31:44.789Z,18.55
2023-01-30T02:34:19.717Z,18.63
2023-01-30T02:37:23.673Z,16.23
2023-01-30T02:40:15.586Z,18.77
2023-01-30T02:43:00.712Z,17.88
2023-01-30T02:45:46.180Z,18.70
2023-01-30T02:48:22.297Z,20.00
2023-01-30T02:51:05.598Z,19.50
2023-01-30T02:56:00.834Z,19.73
2023-01-30T02:58:32.468Z,20.42
2023-01-30T03:01:28.338Z,18.67
2023-01-30T03:04:18.546Z,19.13
2023-01-30T03:07:16.037Z,17.83
2023-01-30T03:10:02.766Z,16.10
2023-01-30T03:12:49.050Z,20.10
2023-01-30T03:15:40.823Z,18.58
2023-01-30T03:18:08.882Z,17.20
2023-01-30T03:20:41.281Z,15.55
2023-01-30T03:23:08.824Z,18.10
2023-01-30T03:25:37.962Z,17.08
2023-01-30T03:28:06.101Z,15.45
2023-01-30T03:30:33.385Z,18.38
2023-01-30T03:33:07.315Z,19.33
2023-01-30T03:35:36.398Z,18.20
2023-01-30T03:38:03.382Z,19.67
2023-01-30T03:40:30.609Z,16.67
2023-01-30T03:42:58.294Z,15.10
2023-01-30T03:45:26.308Z,16.52
2023-01-30T03:47:54.277Z,17.75
2023-01-30T03:50:21.486Z,17.70
2023-01-30T03:52:48.768Z,16.77
2023-01-30T03:55:19.451Z,16.73
2023-01-30T03:57:46.926Z,17.15
2023-01-30T04:00:17.157Z,14.98
2023-01-30T04:02:44.104Z,16.50
2023-01-30T04:05:15.155Z,14.70
2023-01-30T04:07:48.379Z,15.05
2023-01-30T04:10:15.980Z,16.65
2023-01-30T04:12:43.074Z,14.70
2023-01-30T04:15:11.960Z,18.45
2023-01-30T04:18:17.296Z,15.02
2023-01-30T04:20:46.755Z,16.10
2023-01-30T04:23:16.690Z,13.18
2023-01-30T04:25:46.612Z,15.60
2023-01-30T04:28:16.501Z,14.80
2023-01-30T04:30:45.078Z,14.38
2023-01-30T04:33:40.053Z,14.10
2023-01-30T04:36:10.097Z,13.35
2023-01-30T04:38:37.658Z,15.93
2023-01-30T04:41:05.883Z,18.08
2023-01-30T04:43:35.540Z,14.95
2023-01-30T04:46:34.960Z,15.48
2023-01-30T04:49:01.849Z,15.50
2023-01-30T04:51:29.202Z,15.10
2023-01-30T04:53:57.664Z,15.02
2023-01-30T04:56:24.824Z,13.95
2023-01-30T04:58:53.012Z,13.20
2023-01-30T05:01:33.255Z,15.13
2023-01-30T05:04:00.983Z,14.18
2023-01-30T05:06:28.307Z,15.57
2023-01-30T05:08:56.593Z,12.27
2023-01-30T05:11:25.175Z,12.90
2023-01-30T05:13:52.363Z,13.70
2023-01-30T05:16:21.385Z,14.50
2023-01-30T05:18:49.057Z,13.63
2023-01-30T05:21:21.663Z,13.70
2023-01-30T05:23:48.606Z,13.18
2023-01-30T05:26:16.049Z,14.57
2023-01-30T05:28:44.266Z,13.10
2023-01-30T05:31:13.667Z,14.20
2023-01-30T05:33:41.664Z,17.58
2023-01-30T05:36:13.824Z,15.93
2023-01-30T05:38:42.169Z,15.30
2023-01-30T05:41:12.031Z,14.25
2023-01-30T05:43:39.000Z,12.85
2023-01-30T05:46:06.863Z,13.52
2023-01-30T05:48:34.508Z,13.10
2023-01-30T05:51:01.782Z,11.15
2023-01-30T05:53:31.847Z,13.20
2023-01-30T05:56:01.451Z,12.75
2023-01-30T05:58:29.405Z,14.35
2023-01-30T06:01:04.860Z,12.80
2023-01-30T06:03:32.259Z,13.52
2023-01-30T06:06:01.127Z,14.48
2023-01-30T06:08:28.192Z,15.00
2023-01-30T06:10:55.071Z,14.02
2023-01-30T06:13:22.281Z,14.07
2023-01-30T06:15:49.300Z,14.18
2023-01-30T06:18:16.230Z,14.80
2023-01-30T06:20:48.383Z,14.23
2023-01-30T06:23:16.138Z,15.10
2023-01-30T06:25:47.582Z,13.27
2023-01-30T06:28:15.651Z,14.32
2023-01-30T06:30:42.874Z,14.35
2023-01-30T06:33:10.567Z,14.13
2023-01-30T06:35:38.687Z,14.75
2023-01-30T06:38:06.135Z,15.57
2023-01-30T06:40:33.195Z,13.50
2023-01-30T06:43:00.183Z,13.75
2023-01-30T06:45:27.077Z,14.15
2023-01-30T06:47:55.879Z,13.77
2023-01-30T06:50:27.714Z,12.75
2023-01-30T06:52:55.495Z,12.80
2023-01-30T06:55:25.505Z,13.35
2023-01-30T06:58:06.221Z,12.93
2023-01-30T07:00:34.360Z,14.18
2023-01-30T07:03:01.630Z,12.82
2023-01-30T07:05:29.380Z,12.57
2023-01-30T07:07:56.566Z,12.48
2023-01-30T07:10:26.164Z,15.48
2023-01-30T07:12:53.631Z,13.88
2023-01-30T07:15:20.902Z,15.32
2023-01-30T07:17:48.001Z,14.27
2023-01-30T07:20:15.109Z,13.10
2023-01-30T07:22:42.247Z,13.93
2023-01-30T07:25:09.456Z,15.48
2023-01-30T07:27:36.294Z,13.52
2023-01-30T07:30:03.460Z,14.23
2023-01-30T07:32:30.462Z,13.32
2023-01-30T07:34:57.442Z,11.30
2023-01-30T07:37:24.499Z,11.85
2023-01-30T07:39:51.610Z,14.00
2023-01-30T07:42:18.554Z,12.20
2023-01-30T07:44:45.945Z,13.25
2023-01-30T07:47:13.036Z,12.18
2023-01-30T07:49:39.929Z,11.57
2023-01-30T07:52:06.868Z,12.98
2023-01-30T07:54:33.922Z,13.30
2023-01-30T07:57:01.012Z,12.02
2023-01-30T07:59:28.064Z,12.40
2023-01-30T08:01:56.955Z,12.32
2023-01-30T08:04:24.082Z,12.70
2023-01-30T08:06:51.076Z,11.25
2023-01-30T08:09:18.018Z,12.95
2023-01-30T08:11:44.953Z,12.40
2023-01-30T08:14:11.930Z,12.35
2023-01-30T08:16:39.167Z,14.48
2023-01-30T08:19:06.613Z,12.30
2023-01-30T08:21:33.617Z,10.40
2023-01-30T08:24:01.474Z,14.30
2023-01-30T08:26:28.559Z,10.95
2023-01-30T08:28:56.129Z,13.00
2023-01-30T08:31:23.585Z,13.98
2023-01-30T08:33:50.574Z,13.13
2023-01-30T08:36:17.469Z,12.88
2023-01-30T08:38:44.661Z,11.23
2023-01-30T08:41:11.669Z,12.15
2023-01-30T08:43:38.747Z,11.63
2023-01-30T08:46:05.803Z,11.15
2023-01-30T08:48:47.443Z,11.75
2023-01-30T08:51:15.990Z,11.90
2023-01-30T08:53:42.915Z,13.73
2023-01-30T08:56:09.902Z,13.50
2023-01-30T08:58:38.253Z,11.48
2023-01-30T09:01:06.547Z,15.65
2023-01-30T09:03:33.623Z,14.15
2023-01-30T09:06:00.571Z,12.93
2023-01-30T09:08:27.541Z,11.25
2023-01-30T09:11:02.015Z,11.65
2023-01-30T09:13:30.002Z,13.68
2023-01-30T09:15:57.627Z,12.15
2023-01-30T09:18:25.134Z,12.73
2023-01-30T09:20:52.871Z,13.07
2023-01-30T09:23:20.603Z,10.30
2023-01-30T09:25:47.793Z,14.93
2023-01-30T09:28:14.682Z,12.05
2023-01-30T09:30:41.646Z,8.73
2023-01-30T09:33:08.574Z,9.25
2023-01-30T09:35:35.329Z,11.43
2023-01-30T09:38:03.074Z,11.18
2023-01-30T09:40:32.634Z,10.90
2023-01-30T09:43:11.493Z,11.70
2023-01-30T09:45:55.084Z,10.98
2023-01-30T09:48:27.139Z,9.75
2023-01-30T09:51:07.413Z,9.95
2023-01-30T09:53:52.619Z,11.82
2023-01-30T09:56:19.718Z,10.45
2023-01-30T09:58:53.775Z,9.82
2023-01-30T10:01:58.947Z,10.18
2023-01-30T10:04:41.963Z,7.88
2023-01-30T10:07:34.733Z,10.25
2023-01-30T10:10:17.930Z,10.05
2023-01-30T10:13:10.448Z,7.43
2023-01-30T10:15:55.556Z,8.23
2023-01-30T10:18:41.776Z,7.60
2023-01-30T10:21:32.756Z,5.03
2023-01-30T10:24:23.383Z,5.18
2023-01-30T10:26:50.246Z,11.18
2023-01-30T10:29:21.991Z,5.35
2023-01-30T10:31:51.413Z,16.55
2023-01-30T10:34:34.342Z,11.18
2023-01-30T10:37:10.355Z,4.25
2023-01-30T10:39:49.607Z,3.65
2023-01-30T10:42:48.703Z,4.70
2023-01-30T10:45:20.484Z,4.15
2023-01-30T10:48:01.743Z,3.78
2023-01-30T10:50:45.549Z,3.90
2023-01-30T10:53:28.466Z,3.22
2023-01-30T10:56:15.623Z,3.75
2023-01-30T10:59:05.807Z,4.50
2023-01-30T11:01:43.519Z,7.32
2023-01-30T11:04:32.308Z,5.78
2023-01-30T11:07:00.775Z,6.10
2023-01-30T11:09:42.832Z,7.10
2023-01-30T11:12:09.869Z,5.60
2023-01-30T11:14:59.740Z,5.78
2023-01-30T11:17:38.516Z,6.82
2023-01-30T11:20:17.510Z,5.18
2023-01-30T11:23:04.010Z,7.07
2023-01-30T11:25:31.442Z,6.80
2023-01-30T11:28:04.148Z,6.00
2023-01-30T11:30:34.944Z,6.53
2023-01-30T11:33:11.329Z,6.68
2023-01-30T11:35:51.974Z,6.22
2023-01-30T11:38:30.319Z,5.88
2023-01-30T11:41:20.828Z,5.25
2023-01-30T11:43:48.518Z,6.05
2023-01-30T11:46:20.906Z,5.38
2023-01-30T11:49:03.702Z,6.38
2023-01-30T11:51:49.130Z,5.40
2023-01-30T11:54:28.104Z,5.97
2023-01-30T11:56:58.889Z,5.13
2023-01-30T11:59:37.951Z,6.82
2023-01-30T12:02:18.316Z,5.45
2023-01-30T12:04:47.309Z,6.07
2023-01-30T12:07:29.574Z,5.70
2023-01-30T12:09:58.635Z,6.37
2023-01-30T12:12:31.511Z,4.75
2023-01-30T12:17:48.374Z,6.38
2023-01-30T12:20:44.460Z,6.72
2023-01-30T12:23:27.335Z,7.72
2023-01-30T12:26:22.996Z,5.75
2023-01-30T12:29:11.605Z,6.53
2023-01-30T12:31:49.915Z,7.13
2023-01-30T12:34:17.096Z,6.20
2023-01-30T12:36:57.083Z,5.47
2023-01-30T12:39:44.437Z,6.82
2023-01-30T12:42:32.946Z,6.72
2023-01-30T12:45:22.390Z,6.30
2023-01-30T12:48:01.945Z,6.22
2023-01-30T12:51:03.428Z,6.97
2023-01-30T12:53:52.759Z,7.05
2023-01-30T12:56:42.532Z,6.57
2023-01-30T12:59:24.780Z,7.50
2023-01-30T13:02:19.382Z,6.85
2023-01-30T13:05:14.314Z,7.35
2023-01-30T13:07:49.900Z,7.55
2023-01-30T13:10:28.290Z,8.10
2023-01-30T13:13:11.388Z,8.60
2023-01-30T13:18:08.015Z,5.72
2023-01-30T13:20:46.520Z,8.30
2023-01-30T13:23:17.652Z,9.45
2023-01-30T13:26:08.630Z,7.00
2023-01-30T13:28:40.676Z,6.88
2023-01-30T13:31:11.780Z,7.20
2023-01-30T13:33:43.762Z,7.90
2023-01-30T13:36:40.416Z,7.10
2023-01-30T13:39:30.616Z,8.63
2023-01-30T13:41:59.464Z,7.97
2023-01-30T13:44:30.883Z,8.27
2023-01-30T13:47:03.926Z,8.35
2023-01-30T13:50:18.603Z,7.30
2023-01-30T13:52:57.591Z,7.88
2023-01-30T13:55:46.182Z,6.60
2023-01-30T13:58:44.290Z,6.93
2023-01-30T14:01:13.772Z,7.35
2023-01-30T14:03:41.880Z,8.18
2023-01-30T14:06:25.860Z,7.82
2023-01-30T14:08:59.416Z,6.68
2023-01-30T14:11:39.771Z,6.65
2023-01-30T14:14:15.665Z,8.20
2023-01-30T14:16:46.032Z,7.38
2023-01-30T14:19:38.107Z,7.55
2023-01-30T14:22:34.538Z,11.18
2023-01-30T14:25:35.468Z,7.55
2023-01-30T14:28:05.030Z,7.28
2023-01-30T14:30:36.366Z,10.88
2023-01-30T14:33:24.611Z,7.75
2023-01-30T14:36:06.283Z,8.82
2023-01-30T14:38:35.119Z,8.68
2023-01-30T14:41:01.900Z,9.80
2023-01-30T14:43:38.425Z,10.30
2023-01-30T14:46:17.569Z,8.32
2023-01-30T14:49:18.540Z,8.55
2023-01-30T14:51:49.628Z,7.38
2023-01-30T14:54:17.936Z,8.82
2023-01-30T14:57:05.576Z,8.43
2023-01-30T14:59:37.675Z,10.23
2023-01-30T15:02:13.983Z,9.00
2023-01-30T15:04:58.808Z,8.45
2023-01-30T15:07:50.250Z,9.20
2023-01-30T15:10:29.030Z,12.30
2023-01-30T15:13:11.091Z,7.03
2023-01-30T15:15:56.815Z,9.50
2023-01-30T15:18:29.699Z,5.80
2023-01-30T15:23:47.659Z,9.95
2023-01-30T15:26:28.375Z,6.47
2023-01-30T15:29:32.934Z,6.82
2023-01-30T15:32:15.978Z,6.70
2023-01-30T15:35:00.482Z,5.22
2023-01-30T15:37:37.871Z,7.20
2023-01-30T15:40:31.500Z,8.18
2023-01-30T15:43:13.767Z,8.75
2023-01-30T15:45:52.408Z,7.03
2023-01-30T15:48:46.043Z,10.25
2023-01-30T15:51:15.880Z,4.50
2023-01-30T15:53:45.734Z,8.18
2023-01-30T15:56:20.393Z,6.03
2023-01-30T15:58:47.588Z,8.10
2023-01-30T16:01:22.077Z,5.18
2023-01-30T16:03:50.993Z,7.63
2023-01-30T16:06:35.145Z,7.40
2023-01-30T16:09:07.580Z,7.13
2023-01-30T16:11:43.249Z,5.82
2023-01-30T16:14:18.160Z,6.35
2023-01-30T16:17:01.277Z,5.40
2023-01-30T16:22:05.463Z,5.45
2023-01-30T16:27:20.496Z,7.25
2023-01-30T16:29:51.121Z,7.85
2023-01-30T16:32:21.167Z,6.85
2023-01-30T16:34:48.197Z,9.23
2023-01-30T16:37:21.158Z,7.68
2023-01-30T16:40:17.482Z,8.48
2023-01-30T16:43:22.618Z,5.65
2023-01-30T16:45:52.800Z,7.88
2023-01-30T16:48:19.867Z,6.85
2023-01-30T16:50:48.686Z,8.27
2023-01-30T16:53:23.338Z,6.50
2023-01-30T16:56:04.459Z,6.95
2023-01-30T16:58:34.899Z,9.25
2023-01-30T17:01:05.394Z,6.00
2023-01-30T17:03:41.943Z,8.93
2023-01-30T17:06:30.487Z,13.35
2023-01-30T17:08:58.824Z,8.25
2023-01-30T17:11:31.048Z,7.82
2023-01-30T17:14:21.211Z,8.38
2023-01-30T17:17:03.299Z,8.90
2023-01-30T17:19:30.563Z,9.20
2023-01-30T17:21:59.055Z,7.30
2023-01-30T17:24:26.447Z,5.72
2023-01-30T17:26:59.261Z,8.95
2023-01-30T17:34:41.392Z,6.47
2023-01-30T17:37:17.628Z,8.93
2023-01-30T17:39:44.553Z,7.85
2023-01-30T17:42:15.485Z,9.02
2023-01-30T17:44:42.378Z,6.55
2023-01-30T17:47:12.586Z,9.55
2023-01-30T17:49:39.850Z,11.27
2023-01-30T17:52:07.146Z,9.75
2023-01-30T17:54:34.109Z,9.98
2023-01-30T17:57:06.367Z,11.25
2023-01-30T17:59:33.465Z,9.43
2023-01-30T18:02:00.490Z,7.20
2023-01-30T18:04:27.382Z,7.80
2023-01-30T18:07:04.341Z,5.43
2023-01-30T18:09:32.037Z,7.00
2023-01-30T18:11:58.922Z,6.53
2023-01-30T18:14:25.837Z,5.20
2023-01-30T18:16:53.007Z,10.27
2023-01-30T18:19:25.209Z,6.82
2023-01-30T18:21:52.202Z,8.75
2023-01-30T18:24:19.690Z,7.68
2023-01-30T18:26:47.635Z,8.20
2023-01-30T18:29:14.716Z,7.93
2023-01-30T18:31:41.762Z,6.05
2023-01-30T18:34:11.388Z,9.77
2023-01-30T18:36:40.897Z,7.45
2023-01-30T18:39:07.948Z,10.85
2023-01-30T18:41:35.416Z,9.43
2023-01-30T18:44:06.544Z,8.43
2023-01-30T18:46:35.994Z,7.72
2023-01-30T18:49:02.944Z,11.60
2023-01-30T18:51:33.794Z,6.93
2023-01-30T18:54:01.654Z,7.45
2023-01-30T18:56:31.639Z,10.45
2023-01-30T18:59:02.537Z,9.55
2023-01-30T19:01:31.859Z,14.98
2023-01-30T19:04:03.716Z,9.65
2023-01-30T19:06:30.591Z,9.05
2023-01-30T19:08:59.641Z,8.15
2023-01-30T19:11:48.067Z,7.90
2023-01-30T19:14:15.066Z,8.82
2023-01-30T19:16:42.073Z,8.55
2023-01-30T19:19:09.604Z,10.73
2023-01-30T19:21:37.092Z,7.93
2023-01-30T19:24:11.380Z,10.52
2023-01-30T19:26:38.516Z,10.30
2023-01-30T19:29:09.443Z,6.57
2023-01-30T19:31:36.537Z,11.32
2023-01-30T19:34:07.644Z,6.20
2023-01-30T19:36:36.133Z,9.75
2023-01-30T19:39:06.118Z,9.18
2023-01-30T19:41:37.027Z,8.75
2023-01-30T19:44:06.430Z,11.27
2023-01-30T19:46:33.627Z,10.43
2023-01-30T19:49:11.468Z,10.82
2023-01-30T19:51:38.656Z,12.50
2023-01-30T19:54:08.076Z,12.80
2023-01-30T19:56:36.733Z,12.18
2023-01-30T19:59:12.893Z,10.70
2023-01-30T20:01:40.655Z,10.45
2023-01-30T20:04:10.088Z,9.95
2023-01-30T20:06:37.729Z,9.75
2023-01-30T20:09:11.318Z,8.18
2023-01-30T20:11:40.908Z,10.07
2023-01-30T20:14:10.846Z,8.40
2023-01-30T20:16:38.091Z,9.48
2023-01-30T20:19:15.482Z,10.48
2023-01-30T20:21:43.363Z,11.45
2023-01-30T20:24:13.239Z,8.60
2023-01-30T20:26:40.533Z,7.15
2023-01-30T20:29:19.424Z,6.80
2023-01-30T20:31:46.554Z,11.15
2023-01-30T20:34:21.991Z,7.95
2023-01-30T20:36:49.557Z,8.93
2023-01-30T20:39:20.788Z,12.30
2023-01-30T20:41:51.139Z,11.32
2023-01-30T20:44:21.220Z,8.95
2023-01-30T20:46:49.821Z,10.63
2023-01-30T20:49:28.252Z,11.48
2023-01-30T20:51:55.156Z,9.77
2023-01-30T20:54:29.442Z,11.30
2023-01-30T20:56:57.857Z,8.45
2023-01-30T20:59:27.062Z,13.00
2023-01-30T21:01:54.554Z,8.93
2023-01-30T21:04:24.363Z,9.55
2023-01-30T21:06:51.436Z,9.30
2023-01-30T21:09:21.143Z,7.07
2023-01-30T21:11:56.472Z,9.50
2023-01-30T21:14:26.234Z,12.20
2023-01-30T21:16:53.428Z,9.85
2023-01-30T21:19:21.758Z,7.38
2023-01-30T21:21:55.213Z,11.85
2023-01-30T21:24:28.043Z,8.63
2023-01-30T21:27:04.283Z,8.13
2023-01-30T21:29:31.414Z,6.43
2023-01-30T21:32:01.790Z,10.70
2023-01-30T21:34:30.921Z,11.27
2023-01-30T21:37:21.796Z,6.72
2023-01-30T21:40:14.823Z,9.02
2023-01-30T21:43:02.635Z,7.68
2023-01-30T21:45:29.559Z,13.98
2023-01-30T21:47:56.812Z,8.27
2023-01-30T21:50:23.909Z,10.82
2023-01-30T21:52:50.875Z,15.23
2023-01-30T21:55:18.165Z,17.35
2023-01-30T21:57:45.119Z,15.15
2023-01-30T22:00:12.666Z,21.90
2023-01-30T22:02:39.911Z,26.98
2023-01-30T22:05:09.636Z,19.58
2023-01-30T22:07:38.894Z,27.48
2023-01-30T22:10:05.995Z,23.10
2023-01-30T22:12:34.183Z,23.85
2023-01-30T22:15:03.673Z,17.52
2023-01-30T22:17:30.677Z,10.45
2023-01-30T22:19:59.880Z,10.02
2023-01-30T22:22:26.910Z,12.80
2023-01-30T22:24:53.849Z,13.30
2023-01-30T22:27:22.935Z,12.23
2023-01-30T22:29:49.849Z,11.32
2023-01-30T22:32:16.781Z,9.30
2023-01-30T22:34:45.019Z,9.25
2023-01-30T22:37:11.984Z,11.63
2023-01-30T22:39:40.332Z,11.50
2023-01-30T22:42:08.095Z,11.52
2023-01-30T22:44:35.838Z,12.68
2023-01-30T22:47:02.984Z,9.27
2023-01-30T22:49:30.086Z,10.00
2023-01-30T22:51:56.953Z,11.30
2023-01-30T22:54:25.150Z,7.97
2023-01-30T22:56:52.684Z,12.35
2023-01-30T22:59:19.786Z,8.50
2023-01-30T23:01:48.414Z,13.43
2023-01-30T23:04:20.718Z,8.13
2023-01-30T23:06:48.790Z,11.75
2023-01-30T23:09:19.259Z,9.55
2023-01-30T23:12:21.401Z,11.82
2023-01-30T23:14:48.381Z,11.82
2023-01-30T23:17:33.718Z,10.20
2023-01-30T23:20:00.878Z,8.75
2023-01-30T23:22:27.800Z,9.95
2023-01-30T23:24:54.744Z,11.13
2023-01-30T23:27:21.813Z,12.90
2023-01-30T23:29:48.963Z,12.07
2023-01-30T23:32:19.971Z,10.57
2023-01-30T23:34:47.807Z,18.05
2023-01-30T23:37:15.392Z,8.57
2023-01-30T23:39:42.474Z,9.40
2023-01-30T23:42:09.473Z,13.40
2023-01-30T23:44:36.454Z,12.63
2023-01-30T23:47:03.519Z,10.35
2023-01-30T23:49:30.489Z,12.00
2023-01-30T23:51:57.427Z,12.77
2023-01-30T23:54:25.147Z,11.75
2023-01-30T23:56:54.530Z,12.73
2023-01-30T23:59:21.504Z,12.65
